Time;durP1;ratioP1;P1;durP2;ratioP2;P2;SDS_P1;SDS_P2;PMS_P1;PMS_P2;Temp;Humidity;BMP_temperature;BMP_pressure;BME280_temperature;BME280_humidity;BME280_pressure;Samples;Min_cycle;Max_cycle;Signal;HPM_P1;HPM_P2
2022/04/20 00:00:04;;;;;;;2.97;2.50;;;;;;;11.66;54.74;100281.44;5084929;28;20521;-61
2022/04/20 00:02:36;;;;;;;3.08;2.78;;;;;;;11.69;54.74;100285.53;5092192;28;20110;-61
2022/04/20 00:05:05;;;;;;;4.40;2.33;;;;;;;11.70;54.76;100285.22;5092656;28;20055;-61
2022/04/20 00:07:33;;;;;;;5.80;2.80;;;;;;;11.74;54.50;100282.72;5093187;28;20052;-61
2022/04/20 00:10:01;;;;;;;2.83;2.47;;;;;;;11.74;54.60;100287.38;5072766;28;20375;-61
2022/04/20 00:12:29;;;;;;;4.07;2.60;;;;;;;11.81;54.45;100293.31;5085344;28;20395;-61
2022/04/20 00:14:58;;;;;;;3.47;3.00;;;;;;;11.85;54.26;100288.03;5092821;28;20782;-61
2022/04/20 00:17:25;;;;;;;3.05;2.40;;;;;;;11.88;54.35;100292.94;5092318;28;20048;-61
2022/04/20 00:19:54;;;;;;;4.80;2.55;;;;;;;11.85;54.17;100294.34;5089029;28;20064;-61
2022/04/20 00:22:22;;;;;;;6.03;2.47;;;;;;;11.97;54.09;100302.13;5082218;28;20051;-61
2022/04/20 00:24:50;;;;;;;4.20;2.42;;;;;;;11.91;54.10;100300.56;5092209;28;20398;-61
2022/04/20 00:27:17;;;;;;;5.10;2.63;;;;;;;11.98;53.71;100292.81;5091635;28;20051;-61
2022/04/20 00:29:45;;;;;;;3.85;2.50;;;;;;;12.02;54.23;100298.50;5086905;28;20051;-62
2022/04/20 00:32:14;;;;;;;2.70;2.10;;;;;;;11.96;54.16;100300.50;5090728;28;20795;-61
2022/04/20 00:34:42;;;;;;;2.58;2.22;;;;;;;11.94;54.67;100311.75;5092210;28;20048;-61
2022/04/20 00:37:10;;;;;;;7.57;1.92;;;;;;;11.92;54.58;100310.41;5090521;28;20055;-61
2022/04/20 00:39:38;;;;;;;2.75;2.45;;;;;;;11.98;54.99;100317.50;5091986;28;20056;-61
2022/04/20 00:42:08;;;;;;;2.10;1.55;;;;;;;11.92;54.92;100313.97;5092108;28;20043;-61
2022/04/20 00:44:36;;;;;;;3.13;2.88;;;;;;;12.02;55.20;100325.94;5091728;28;20059;-61
2022/04/20 00:47:06;;;;;;;2.75;2.38;;;;;;;11.97;56.08;100321.31;5091892;28;20043;-61
2022/04/20 00:49:35;;;;;;;3.28;2.30;;;;;;;11.93;56.38;100328.53;5090642;28;20490;-61
2022/04/20 00:52:05;;;;;;;3.03;2.72;;;;;;;11.88;56.16;100329.38;5090170;28;20044;-61
2022/04/20 00:54:34;;;;;;;2.83;2.00;;;;;;;11.88;56.11;100337.63;5090518;28;20052;-61
2022/04/20 00:57:03;;;;;;;4.40;2.00;;;;;;;11.91;56.28;100325.25;5091962;28;20052;-61
2022/04/20 00:59:35;;;;;;;2.20;2.00;;;;;;;11.87;56.65;100332.44;5082317;28;20129;-61
2022/04/20 01:02:04;;;;;;;2.60;2.40;;;;;;;11.85;56.87;100332.72;5090546;28;20048;-61
2022/04/20 01:04:33;;;;;;;4.78;1.83;;;;;;;11.85;57.00;100332.72;5090460;28;20055;-61
2022/04/20 01:07:19;;;;;;;1.85;1.75;;;;;;;11.86;57.41;100339.00;5090428;28;20058;-61
2022/04/20 01:10:06;;;;;;;2.47;2.28;;;;;;;11.85;57.40;100334.66;5084800;28;20056;-61
2022/04/20 01:13:03;;;;;;;3.08;2.28;;;;;;;11.89;58.20;100341.19;5057719;28;20064;-61
2022/04/20 01:15:39;;;;;;;3.28;2.33;;;;;;;11.87;58.56;100351.63;5092536;28;20044;-61
2022/04/20 01:18:20;;;;;;;1.73;1.63;;;;;;;11.75;59.65;100352.88;5093744;28;20140;-61
2022/04/20 01:21:17;;;;;;;2.50;2.25;;;;;;;11.81;60.12;100356.34;5094336;28;20398;-61
2022/04/20 01:24:05;;;;;;;1.13;1.05;;;;;;;11.79;60.27;100345.69;5073803;28;20048;-61
2022/04/20 01:26:48;;;;;;;1.85;1.75;;;;;;;11.76;60.78;100362.72;5094437;28;20055;-62
2022/04/20 01:29:29;;;;;;;2.25;1.65;;;;;;;11.77;61.49;100367.09;5105012;28;20494;-61
2022/04/20 01:32:03;;;;;;;5.18;2.05;;;;;;;11.85;61.23;100373.03;5082051;28;20064;-61
2022/04/20 01:34:52;;;;;;;7.55;2.20;;;;;;;11.76;61.99;100372.88;5094080;28;20502;-61
2022/04/20 01:37:20;;;;;;;1.80;1.63;;;;;;;11.76;62.69;100375.59;5094151;28;20399;-61
2022/04/20 01:39:49;;;;;;;2.95;2.00;;;;;;;11.72;63.33;100378.13;5095164;28;20048;-61
2022/04/20 01:42:17;;;;;;;1.88;1.77;;;;;;;11.72;63.71;100378.13;5093954;28;20048;-61
2022/04/20 01:44:48;;;;;;;2.28;1.77;;;;;;;11.75;64.16;100380.28;5093656;28;20052;-61
2022/04/20 01:47:34;;;;;;;9.18;1.80;;;;;;;11.64;65.03;100381.53;5081896;28;20044;-61
2022/04/20 01:50:25;;;;;;;4.32;1.58;;;;;;;11.60;66.03;100392.25;5088285;28;20690;-61
2022/04/20 01:53:08;;;;;;;2.17;1.92;;;;;;;11.53;66.41;100392.59;5093823;28;20056;-61
2022/04/20 01:55:54;;;;;;;1.60;1.27;;;;;;;11.50;66.13;100395.94;5095136;28;20058;-61
2022/04/20 01:58:38;;;;;;;;;;;;;;;11.46;66.14;100400.34;5093953;28;20040;-61
2022/04/20 02:04:19;;;;;;;8.25;1.60;;;;;;;11.31;67.41;100411.44;5092310;28;20055;-61
2022/04/20 02:06:47;;;;;;;6.25;1.55;;;;;;;11.34;67.36;100411.69;5094181;28;20051;-61
2022/04/20 02:09:25;;;;;;;2.08;1.88;;;;;;;11.37;67.30;100405.63;5093205;28;20052;-61
2022/04/20 02:12:02;;;;;;;2.70;1.73;;;;;;;11.43;67.39;100404.47;5093587;28;20051;-61
2022/04/20 02:14:54;;;;;;;2.58;2.05;;;;;;;11.53;66.67;100409.03;5083898;28;20040;-61
2022/04/20 02:17:50;;;;;;;1.33;1.23;;;;;;;11.47;66.44;100407.47;5094487;28;20052;-62
2022/04/20 02:20:25;;;;;;;2.03;1.85;;;;;;;11.46;66.98;100419.53;5093369;28;20517;-61
2022/04/20 02:22:55;;;;;;;1.85;1.73;;;;;;;11.43;67.02;100420.09;5093109;28;20052;-62
2022/04/20 02:25:26;;;;;;;2.13;1.63;;;;;;;11.45;66.64;100430.78;5076713;28;20048;-62
2022/04/20 02:27:56;;;;;;;2.60;2.00;;;;;;;11.34;66.25;100424.59;5092701;28;20398;-61
2022/04/20 02:30:24;;;;;;;1.67;1.58;;;;;;;11.36;65.69;100430.59;5087133;28;20048;-61
2022/04/20 02:32:52;;;;;;;4.35;1.98;;;;;;;11.25;65.53;100436.16;5085145;28;20040;-62
2022/04/20 02:35:20;;;;;;;2.13;2.00;;;;;;;11.28;65.55;100441.06;5093021;28;20501;-61
2022/04/20 02:37:48;;;;;;;5.13;2.28;;;;;;;11.15;65.80;100441.75;5093042;28;20044;-61
2022/04/20 02:40:17;;;;;;;4.15;2.33;;;;;;;11.13;65.91;100444.75;5087812;28;20056;-61
2022/04/20 02:42:46;;;;;;;2.47;2.22;;;;;;;11.15;65.80;100441.75;5083976;28;20052;-62
2022/04/20 02:45:14;;;;;;;4.97;2.45;;;;;;;11.22;65.50;100446.88;5094179;28;20048;-62
2022/04/20 02:47:42;;;;;;;5.38;2.13;;;;;;;11.09;65.68;100451.09;5090427;28;20056;-62
2022/04/20 02:50:10;;;;;;;4.22;2.40;;;;;;;11.08;65.60;100455.75;5094200;28;20044;-62
2022/04/20 02:52:38;;;;;;;2.90;2.17;;;;;;;11.10;65.27;100452.72;5093915;28;20047;-61
2022/04/20 02:55:07;;;;;;;2.25;2.05;;;;;;;11.11;65.54;100457.09;5092534;28;20375;-62
2022/04/20 02:57:36;;;;;;;2.10;2.00;;;;;;;11.10;65.32;100452.72;5092722;28;20051;-61
2022/04/20 03:00:05;;;;;;;2.60;2.30;;;;;;;11.15;64.94;100452.69;5094112;28;20056;-61
2022/04/20 03:02:38;;;;;;;3.33;2.55;;;;;;;11.09;63.92;100453.84;5078303;28;20052;-61
2022/04/20 03:05:07;;;;;;;1.63;1.52;;;;;;;11.04;63.53;100459.34;5092049;28;20056;-61
2022/04/20 03:07:35;;;;;;;2.38;2.17;;;;;;;11.06;63.13;100459.88;5084045;28;20044;-62
2022/04/20 03:10:03;;;;;;;2.08;1.80;;;;;;;11.07;62.65;100461.50;5093859;28;20517;-61
2022/04/20 03:12:38;;;;;;;1.85;1.75;;;;;;;11.02;61.92;100460.47;5092195;28;20044;-61
2022/04/20 03:15:07;;;;;;;3.22;2.15;;;;;;;11.07;61.95;100456.03;5092449;28;20044;-61
2022/04/20 03:17:35;;;;;;;2.08;1.88;;;;;;;11.05;61.67;100459.06;5091870;28;20052;-61
2022/04/20 03:20:04;;;;;;;3.45;1.75;;;;;;;11.01;61.36;100461.53;5093457;28;20060;-62
2022/04/20 03:22:32;;;;;;;2.20;1.83;;;;;;;10.93;61.15;100467.66;5092414;28;20106;-61
2022/04/20 03:25:01;;;;;;;1.75;1.55;;;;;;;10.86;61.11;100470.69;5093694;28;20482;-62
2022/04/20 03:27:53;;;;;;;2.30;1.92;;;;;;;10.89;60.85;100466.56;5091879;28;20851;-61
2022/04/20 03:30:21;;;;;;;1.65;1.20;;;;;;;10.87;60.86;100477.78;5086674;28;20052;-61
2022/04/20 03:32:50;;;;;;;3.67;1.95;;;;;;;10.79;61.13;100463.94;5075329;28;20057;-61
2022/04/20 03:35:18;;;;;;;3.85;2.08;;;;;;;10.82;61.29;100475.13;5090031;28;20032;-61
2022/04/20 03:37:46;;;;;;;1.73;1.58;;;;;;;10.73;60.91;100476.81;5092562;28;20048;-61
2022/04/20 03:40:14;;;;;;;1.95;1.65;;;;;;;10.73;61.13;100485.84;5078411;28;20048;-61
2022/04/20 03:42:43;;;;;;;1.85;1.75;;;;;;;10.80;61.24;100484.72;5093336;28;20048;-61
2022/04/20 03:45:11;;;;;;;1.40;1.27;;;;;;;10.69;61.13;100492.16;5092924;28;20067;-61
2022/04/20 03:47:39;;;;;;;1.42;1.33;;;;;;;10.64;61.82;100493.00;5085410;28;20044;-61
2022/04/20 03:50:08;;;;;;;4.13;1.65;;;;;;;10.62;62.15;100487.81;5065885;28;20044;-61
2022/04/20 03:52:38;;;;;;;3.45;1.40;;;;;;;10.68;61.59;100499.56;5065920;28;20501;-61
2022/04/20 03:55:09;;;;;;;1.27;1.13;;;;;;;10.57;62.45;100496.03;5060794;28;20052;-61
2022/04/20 03:58:02;;;;;;;1.42;1.33;;;;;;;10.54;62.81;100509.47;5090849;28;20048;-61
2022/04/20 04:00:34;;;;;;;4.50;1.65;;;;;;;10.53;62.45;100511.41;5089953;28;20048;-61
2022/04/20 04:03:05;;;;;;;1.20;0.85;;;;;;;10.51;62.68;100502.66;5080633;28;20051;-61
2022/04/20 04:05:35;;;;;;;2.85;1.10;;;;;;;10.36;62.91;100514.44;5090959;28;20494;-61
2022/04/20 04:08:12;;;;;;;1.85;1.05;;;;;;;10.45;62.60;100507.34;5090610;28;20048;-61
2022/04/20 04:10:40;;;;;;;1.58;1.48;;;;;;;10.41;62.93;100516.38;5091248;28;20055;-61
2022/04/20 04:13:08;;;;;;;1.80;1.10;;;;;;;10.44;62.62;100510.34;5090681;28;20508;-61
2022/04/20 04:15:38;;;;;;;2.08;0.75;;;;;;;10.32;62.61;100518.88;5091044;28;20048;-61
2022/04/20 04:18:08;;;;;;;1.00;0.88;;;;;;;10.36;62.52;100519.91;5081470;28;20055;-61
2022/04/20 04:20:45;;;;;;;1.65;1.30;;;;;;;10.35;62.52;100523.75;5061066;28;20052;-61
2022/04/20 04:23:16;;;;;;;1.20;1.13;;;;;;;10.34;62.46;100522.13;5078205;28;20394;-61
2022/04/20 04:25:50;;;;;;;2.55;1.05;;;;;;;10.35;62.87;100526.50;5086385;28;20399;-61
2022/04/20 04:28:46;;;;;;;1.23;1.05;;;;;;;10.41;62.31;100530.84;5065202;28;20040;-61
2022/04/20 04:31:15;;;;;;;2.83;0.98;;;;;;;10.42;61.88;100537.94;5060968;28;20048;-61
2022/04/20 04:33:43;;;;;;;2.85;1.30;;;;;;;10.39;61.92;100537.69;5068731;28;20044;-62
2022/04/20 04:36:11;;;;;;;1.25;1.13;;;;;;;10.44;61.76;100538.53;5068765;28;20064;-61
2022/04/20 04:38:54;;;;;;;3.00;1.27;;;;;;;10.55;61.00;100533.81;5065186;28;20048;-61
2022/04/20 04:41:26;;;;;;;5.50;0.77;;;;;;;10.58;60.86;100543.41;5060124;28;20048;-61
2022/04/20 04:43:56;;;;;;;0.77;0.77;;;;;;;10.60;60.45;100554.88;5062503;28;20510;-61
2022/04/20 04:49:31;;;;;;;4.25;0.80;;;;;;;10.58;60.33;100557.06;5062499;28;20063;-61
2022/04/20 04:52:00;;;;;;;1.27;1.15;;;;;;;10.65;60.62;100543.91;5060291;28;20108;-61
2022/04/20 04:54:28;;;;;;;2.60;0.88;;;;;;;10.79;60.25;100549.59;5059901;28;20044;-66
2022/04/20 04:56:57;;;;;;;1.05;0.98;;;;;;;11.15;58.46;100562.25;5060201;28;20037;-66
2022/04/20 04:59:43;;;;;;;;;;;;;;;11.40;57.51;100571.38;5062452;28;20501;-66
2022/04/20 05:02:13;;;;;;;1.27;0.90;;;;;;;11.57;56.55;100570.97;5061910;28;19935;-66
2022/04/20 05:04:42;;;;;;;3.95;1.13;;;;;;;11.74;55.89;100578.78;5083493;28;20389;-66
2022/04/20 05:07:12;;;;;;;1.75;1.08;;;;;;;11.93;55.30;100578.06;5059149;28;20403;-66
2022/04/20 05:13:00;;;;;;;1.77;0.95;;;;;;;11.76;54.56;100586.69;5052859;28;20048;-67
2022/04/20 05:15:30;;;;;;;1.95;1.15;;;;;;;11.74;55.18;100578.78;5062451;28;20402;-67
2022/04/20 05:18:02;;;;;;;2.20;0.90;;;;;;;11.53;55.01;100572.63;5073647;28;20049;-67
2022/04/20 05:20:30;;;;;;;0.98;0.90;;;;;;;11.58;55.03;100580.03;5071648;28;20041;-67
2022/04/20 05:22:58;;;;;;;1.35;0.60;;;;;;;11.78;54.71;100585.31;5054264;28;20049;-67
2022/04/20 05:25:28;;;;;;;1.13;0.80;;;;;;;11.69;53.97;100592.53;5067156;28;20044;-67
2022/04/20 05:27:56;;;;;;;1.60;1.00;;;;;;;11.62;54.75;100589.28;5064152;28;20056;-66
2022/04/20 05:30:26;;;;;;;3.47;1.08;;;;;;;11.65;54.56;100589.56;5069484;28;20060;-66
2022/04/20 05:32:54;;;;;;;2.38;1.50;;;;;;;11.80;54.21;100596.81;5085306;28;20472;-67
2022/04/20 05:35:26;;;;;;;1.58;0.90;;;;;;;11.76;54.14;100587.53;5069521;28;20056;-66
2022/04/20 05:43:37;;;;;;;3.67;1.38;;;;;;;11.94;53.58;100588.72;5070273;28;20044;-67
2022/04/20 05:46:09;;;;;;;6.15;1.23;;;;;;;11.92;52.94;100581.88;5070923;28;20053;-67
2022/04/20 05:48:46;;;;;;;4.30;1.40;;;;;;;11.91;52.95;100588.50;5069845;28;20045;-67
2022/04/20 05:51:15;;;;;;;3.08;1.25;;;;;;;11.94;52.83;100587.91;5070187;28;20037;-67
2022/04/20 05:53:44;;;;;;;1.45;1.13;;;;;;;12.01;52.38;100587.56;5070030;28;20044;-67
2022/04/20 05:56:13;;;;;;;1.85;1.17;;;;;;;12.22;52.06;100597.25;5070156;28;20040;-67
2022/04/20 05:58:50;;;;;;;1.45;1.17;;;;;;;12.12;51.18;100593.81;5070062;28;20045;-68
2022/04/20 06:01:22;;;;;;;1.20;1.10;;;;;;;12.20;51.51;100598.66;5070710;28;20047;-67
2022/04/20 06:04:06;;;;;;;1.85;1.23;;;;;;;12.16;51.77;100605.81;5090565;28;20048;-67
2022/04/20 06:06:34;;;;;;;3.78;0.85;;;;;;;12.12;51.96;100616.56;5094510;28;20044;-67
2022/04/20 06:09:24;;;;;;;3.08;1.20;;;;;;;11.98;51.70;100604.63;5093827;28;20036;-65
2022/04/20 06:11:55;;;;;;;3.03;0.80;;;;;;;12.03;51.69;100605.38;5095103;28;20040;-68
2022/04/20 06:14:28;;;;;;;0.57;0.57;;;;;;;11.91;51.95;100605.78;5093551;28;20055;-66
2022/04/20 06:17:06;;;;;;;0.98;0.75;;;;;;;12.23;51.60;100606.31;5093711;28;20060;-66
2022/04/20 06:19:37;;;;;;;1.60;0.80;;;;;;;12.25;51.01;100601.34;5093585;28;20044;-66
2022/04/20 06:22:26;;;;;;;1.05;0.73;;;;;;;12.25;50.80;100608.75;5094442;28;20059;-66
2022/04/20 06:25:02;;;;;;;2.15;0.90;;;;;;;12.18;50.67;100612.66;5093528;28;20040;-66
2022/04/20 06:27:48;;;;;;;0.98;0.70;;;;;;;12.08;50.63;100610.03;5094774;28;20044;-66
2022/04/20 06:30:39;;;;;;;2.85;0.82;;;;;;;12.13;50.70;100623.72;5089074;28;20063;-66
2022/04/20 06:33:43;;;;;;;2.33;0.73;;;;;;;12.17;50.82;100623.94;5051791;28;20049;-66
2022/04/20 06:36:21;;;;;;;0.82;0.68;;;;;;;12.17;50.68;100627.50;5088998;28;20067;-66
2022/04/20 06:39:06;;;;;;;0.50;0.50;;;;;;;12.19;49.39;100627.22;5093311;28;20036;-66
2022/04/20 06:41:51;;;;;;;0.50;0.50;;;;;;;12.09;49.80;100634.41;5078858;28;20474;-66
2022/04/20 06:44:37;;;;;;;4.18;0.90;;;;;;;12.11;50.09;100620.41;5093966;28;20044;-66
2022/04/20 06:47:24;;;;;;;3.03;0.60;;;;;;;12.26;49.40;100627.69;5094172;28;20058;-65
2022/04/20 06:50:10;;;;;;;0.65;0.65;;;;;;;12.18;49.44;100626.38;5094280;28;20040;-65
2022/04/20 06:58:33;;;;;;;1.15;0.80;;;;;;;12.45;48.33;100633.25;5094209;28;20394;-66
2022/04/20 07:01:24;;;;;;;0.60;0.60;;;;;;;12.19;48.59;100636.28;5088554;28;20060;-66
2022/04/20 07:04:31;;;;;;;2.40;0.95;;;;;;;12.20;48.20;100629.66;5080336;28;20410;-66
2022/04/20 07:07:17;;;;;;;0.77;0.75;;;;;;;12.39;47.66;100622.59;5093966;28;20059;-66
2022/04/20 07:10:04;;;;;;;0.80;0.60;;;;;;;12.38;47.52;100631.94;5080216;28;20521;-66
2022/04/20 07:12:51;;;;;;;0.52;0.45;;;;;;;12.44;47.40;100633.53;5091607;28;20044;-66
2022/04/20 07:15:20;;;;;;;1.33;0.85;;;;;;;12.54;47.36;100643.56;5092673;28;20475;-66
2022/04/20 07:17:48;;;;;;;2.15;0.70;;;;;;;12.59;47.17;100638.88;5092522;28;20058;-66
2022/04/20 07:20:36;;;;;;;0.80;0.60;;;;;;;12.60;46.71;100636.91;5093473;28;20044;-67
2022/04/20 07:23:13;;;;;;;0.75;0.70;;;;;;;12.55;46.82;100635.06;5092408;28;20052;-66
2022/04/20 07:25:50;;;;;;;0.70;0.70;;;;;;;12.71;46.12;100641.19;5075396;28;20048;-66
2022/04/20 07:28:37;;;;;;;1.52;0.70;;;;;;;12.62;46.99;100641.00;5092368;28;20055;-66
2022/04/20 07:31:28;;;;;;;1.05;0.63;;;;;;;12.79;46.44;100634.22;5082947;28;20056;-66
2022/04/20 07:34:20;;;;;;;1.65;0.95;;;;;;;12.85;46.19;100644.03;5092236;28;20040;-66
2022/04/20 07:36:50;;;;;;;0.93;0.80;;;;;;;12.90;46.02;100641.22;5093526;28;20055;-66
2022/04/20 07:39:39;;;;;;;1.15;0.80;;;;;;;13.04;45.58;100644.06;5063513;28;20052;-66
2022/04/20 07:42:45;;;;;;;2.17;1.10;;;;;;;12.89;45.00;100644.25;5087582;28;20048;-66
2022/04/20 07:45:25;;;;;;;1.02;0.80;;;;;;;13.13;45.01;100655.22;5093412;28;20052;-66
2022/04/20 07:48:22;;;;;;;0.90;0.85;;;;;;;13.13;44.59;100660.72;5083971;28;20495;-66
2022/04/20 07:51:12;;;;;;;1.67;0.70;;;;;;;12.89;45.33;100656.09;5088849;28;20051;-66
2022/04/20 07:53:56;;;;;;;0.73;0.65;;;;;;;12.96;44.80;100658.44;5092007;28;20047;-66
2022/04/20 07:56:43;;;;;;;0.93;0.93;;;;;;;13.01;44.76;100657.59;5108698;28;20048;-66
2022/04/20 07:59:44;;;;;;;1.00;0.80;;;;;;;13.05;45.16;100653.13;5090630;28;20411;-66
2022/04/20 08:02:32;;;;;;;0.73;0.63;;;;;;;13.13;44.83;100660.72;5085874;28;20510;-68
2022/04/20 08:05:23;;;;;;;0.90;0.73;;;;;;;13.35;44.75;100662.06;5092853;28;20052;-68
2022/04/20 08:07:51;;;;;;;0.65;0.65;;;;;;;13.27;44.07;100668.22;5091470;28;20426;-68
2022/04/20 08:10:19;;;;;;;0.88;0.80;;;;;;;13.49;43.72;100667.66;5084201;28;20052;-68
2022/04/20 08:12:47;;;;;;;0.77;0.77;;;;;;;13.60;43.57;100679.34;5086074;28;20044;-68
2022/04/20 08:15:25;;;;;;;0.90;0.75;;;;;;;13.50;43.49;100680.28;5091502;28;20051;-68
2022/04/20 08:17:56;;;;;;;1.35;0.80;;;;;;;13.52;43.71;100680.00;5091193;28;20067;-69
2022/04/20 08:20:42;;;;;;;0.57;0.57;;;;;;;13.56;43.30;100676.38;5092636;28;20039;-68
2022/04/20 08:23:10;;;;;;;0.70;0.70;;;;;;;13.60;43.17;100673.84;5091277;28;20036;-68
2022/04/20 08:25:39;;;;;;;0.93;0.70;;;;;;;13.69;42.80;100674.00;5092259;28;20474;-68
2022/04/20 08:28:08;;;;;;;0.80;0.70;;;;;;;13.74;42.58;100681.34;5092265;28;20406;-68
2022/04/20 08:30:38;;;;;;;0.60;0.55;;;;;;;13.79;42.63;100689.50;5092468;28;20494;-69
2022/04/20 08:33:08;;;;;;;1.17;0.80;;;;;;;13.81;42.43;100679.84;5092334;28;20568;-68
2022/04/20 08:35:37;;;;;;;3.70;1.10;;;;;;;13.74;42.18;100671.13;5092240;28;20036;-68
2022/04/20 08:38:06;;;;;;;3.72;0.85;;;;;;;14.01;42.00;100674.28;5092369;28;20040;-68
2022/04/20 08:40:35;;;;;;;0.73;0.68;;;;;;;14.22;41.14;100672.00;5092195;28;20051;-68
2022/04/20 08:43:07;;;;;;;1.50;0.70;;;;;;;14.35;40.80;100679.50;5092163;28;20040;-67
2022/04/20 08:45:38;;;;;;;1.38;0.90;;;;;;;14.53;40.56;100682.47;5092161;28;20047;-67
2022/04/20 08:48:06;;;;;;;0.93;0.70;;;;;;;14.73;40.04;100670.25;5091002;28;20059;-67
2022/04/20 08:50:36;;;;;;;1.40;1.00;;;;;;;15.05;39.99;100675.94;5090846;28;20036;-68
2022/04/20 08:53:04;;;;;;;1.52;1.42;;;;;;;15.31;39.45;100673.47;5092051;28;20620;-68
2022/04/20 08:55:33;;;;;;;1.75;0.80;;;;;;;15.25;38.51;100674.69;5090867;28;20047;-68
2022/04/20 08:58:04;;;;;;;1.73;1.08;;;;;;;15.37;39.35;100681.63;5092241;28;20506;-69
2022/04/20 09:00:32;;;;;;;1.98;0.90;;;;;;;15.64;38.20;100677.16;5090712;28;20052;-68
2022/04/20 09:03:03;;;;;;;1.10;0.90;;;;;;;15.88;38.01;100673.28;5090876;28;20040;-69
2022/04/20 09:05:36;;;;;;;1.52;0.63;;;;;;;15.54;37.78;100690.06;5092008;28;20498;-69
2022/04/20 09:08:12;;;;;;;0.88;0.88;;;;;;;15.46;38.19;100668.75;5092026;28;20059;-68
2022/04/20 09:10:40;;;;;;;0.93;0.70;;;;;;;15.34;38.21;100682.25;5092155;28;20040;-68
2022/04/20 09:13:13;;;;;;;1.52;0.73;;;;;;;15.32;38.29;100669.56;5090784;28;20048;-69
2022/04/20 09:15:41;;;;;;;1.67;0.95;;;;;;;15.59;38.09;100664.28;5080966;28;20048;-69
2022/04/20 09:18:12;;;;;;;1.85;0.73;;;;;;;15.55;38.11;100661.34;5088858;28;20501;-69
2022/04/20 09:20:40;;;;;;;2.08;1.30;;;;;;;15.50;37.47;100669.72;5092060;28;20390;-69
2022/04/20 09:23:13;;;;;;;2.90;0.95;;;;;;;15.88;37.68;100673.28;5091815;28;20040;-69
2022/04/20 09:25:50;;;;;;;0.77;0.77;;;;;;;15.60;38.12;100671.47;5091931;28;20036;-69
2022/04/20 09:28:20;;;;;;;3.65;1.30;;;;;;;15.54;37.85;100670.75;5091840;28;20056;-68
2022/04/20 09:30:50;;;;;;;0.70;0.70;;;;;;;15.29;38.63;100670.19;5091883;28;20772;-69
2022/04/20 09:33:18;;;;;;;0.85;0.85;;;;;;;15.50;38.13;100669.72;5091680;28;20047;-69
2022/04/20 09:35:48;;;;;;;1.00;0.90;;;;;;;15.40;38.22;100662.50;5090603;28;20032;-67
2022/04/20 09:38:20;;;;;;;0.95;0.90;;;;;;;15.35;38.19;100678.38;5094518;28;20058;-67
2022/04/20 09:41:07;;;;;;;1.02;0.90;;;;;;;15.56;38.31;100676.75;5094566;28;20047;-67
2022/04/20 09:43:35;;;;;;;0.68;0.68;;;;;;;15.30;38.75;100677.34;5095538;28;20607;-67
2022/04/20 09:48:50;;;;;;;0.88;0.88;;;;;;;15.39;38.67;100677.44;5095503;28;20047;-67
2022/04/20 09:49:10;;;;;;;1.40;0.90;;;;;;;15.59;38.78;100673.38;5095438;28;20048;-67
2022/04/20 09:51:40;;;;;;;2.45;1.08;;;;;;;15.75;37.93;100680.47;5094380;28;20044;-67
2022/04/20 09:54:28;;;;;;;0.90;0.90;;;;;;;16.25;37.49;100671.25;5094171;28;20483;-68
2022/04/20 09:57:16;;;;;;;2.50;1.05;;;;;;;16.24;37.29;100666.88;5095380;28;20048;-67
2022/04/20 10:00:03;;;;;;;1.00;0.90;;;;;;;16.29;37.99;100671.44;5085265;28;20048;-67
2022/04/20 10:02:48;;;;;;;3.20;1.50;;;;;;;16.57;37.51;100657.44;5095405;28;20040;-67
2022/04/20 10:05:19;;;;;;;2.00;1.30;;;;;;;16.43;37.27;100669.38;5095357;28;20040;-67
2022/04/20 10:07:54;;;;;;;1.55;1.20;;;;;;;16.10;38.06;100656.75;5093841;28;20059;-67
2022/04/20 10:10:23;;;;;;;2.90;1.17;;;;;;;15.93;38.43;100651.13;5095395;28;20055;-67
2022/04/20 10:12:54;;;;;;;2.00;1.40;;;;;;;15.81;39.07;100663.50;5093354;28;20051;-67
2022/04/20 10:18:25;;;;;;;4.03;0.98;;;;;;;16.12;38.37;100650.88;5079128;28;20044;-67
2022/04/20 10:20:59;;;;;;;1.42;1.30;;;;;;;16.35;38.10;100642.56;5083243;28;20052;-67
2022/04/20 10:23:31;;;;;;;1.38;1.05;;;;;;;16.49;37.88;100657.09;5076324;28;20051;-67
2022/04/20 10:26:01;;;;;;;1.70;1.45;;;;;;;16.25;37.95;100651.94;5079548;28;20040;-67
2022/04/20 10:28:29;;;;;;;1.63;1.27;;;;;;;16.16;37.66;100645.53;5069983;28;20044;-67
2022/04/20 10:31:20;;;;;;;2.92;1.38;;;;;;;16.26;38.17;100645.28;5069602;28;20048;-67
2022/04/20 10:33:55;;;;;;;4.38;1.30;;;;;;;16.32;37.98;100648.72;5067868;28;20057;-67
2022/04/20 10:37:01;;;;;;;1.35;1.25;;;;;;;16.50;38.47;100641.31;5056531;28;20044;-67
2022/04/20 10:39:36;;;;;;;1.38;1.27;;;;;;;16.57;37.21;100643.63;5072758;28;20395;-67
2022/04/20 10:42:17;;;;;;;1.25;1.10;;;;;;;16.38;37.64;100642.72;5072293;28;20033;-67
2022/04/20 10:45:07;;;;;;;2.00;1.30;;;;;;;16.51;37.74;100640.19;5073123;28;20047;-67
2022/04/20 10:47:42;;;;;;;1.45;1.35;;;;;;;16.27;37.79;100622.06;5074151;28;20048;-67
2022/04/20 10:50:23;;;;;;;1.30;1.20;;;;;;;16.15;38.41;100630.13;5074758;28;20399;-67
2022/04/20 10:53:02;;;;;;;1.90;1.50;;;;;;;16.56;37.96;100631.75;5078758;28;20491;-67
2022/04/20 10:55:32;;;;;;;2.40;1.48;;;;;;;16.60;37.73;100621.72;5065590;28;20060;-67
2022/04/20 10:58:16;;;;;;;1.40;1.30;;;;;;;16.76;37.31;100629.53;5068492;28;20040;-67
2022/04/20 11:00:44;;;;;;;1.63;1.35;;;;;;;16.87;37.44;100614.28;5070410;28;20045;-67
2022/04/20 11:03:12;;;;;;;4.43;1.77;;;;;;;17.15;36.49;100630.63;5072779;28;20040;-67
2022/04/20 11:05:57;;;;;;;2.03;1.48;;;;;;;16.83;36.67;100616.09;5072072;28;20036;-67
2022/04/20 11:08:38;;;;;;;1.58;1.45;;;;;;;16.87;36.96;100619.00;5065526;28;20049;-68
2022/04/20 11:20:08;;;;;;;5.93;1.65;;;;;;;17.00;37.32;100606.16;5070916;28;20036;-67
2022/04/20 11:22:45;;;;;;;1.75;1.65;;;;;;;16.71;37.39;100615.91;5072128;28;20044;-67
2022/04/20 11:25:13;;;;;;;1.75;1.30;;;;;;;16.81;37.12;100615.56;5072086;28;20075;-67
2022/04/20 11:27:42;;;;;;;2.45;1.50;;;;;;;16.91;37.29;100617.22;5071952;28;20056;-67
2022/04/20 11:30:14;;;;;;;1.38;1.27;;;;;;;17.06;37.11;100627.84;5073147;28;20487;-67
2022/04/20 11:32:42;;;;;;;2.08;1.73;;;;;;;17.39;36.49;100629.34;5068816;28;20053;-67
2022/04/20 11:35:15;;;;;;;1.90;1.70;;;;;;;17.26;36.29;100636.66;5071960;28;20037;-67
2022/04/20 11:37:56;;;;;;;1.98;1.35;;;;;;;17.30;36.58;100631.31;5070346;28;20052;-67
2022/04/20 11:40:25;;;;;;;1.75;1.65;;;;;;;17.31;36.68;100621.88;5080200;28;20063;-67
2022/04/20 11:43:10;;;;;;;2.55;1.73;;;;;;;17.40;36.72;100619.91;5065208;28;20040;-67
2022/04/20 11:46:03;;;;;;;1.52;1.42;;;;;;;17.53;36.65;100618.13;5070010;28;20051;-67
2022/04/20 11:48:38;;;;;;;1.75;1.45;;;;;;;17.61;35.73;100610.94;5067076;28;20052;-67
2022/04/20 11:51:09;;;;;;;1.85;1.40;;;;;;;17.39;36.49;100607.22;5066168;28;20055;-67
2022/04/20 11:53:40;;;;;;;2.83;1.52;;;;;;;17.42;35.69;100609.34;5069478;28;20376;-67
2022/04/20 11:56:39;;;;;;;3.35;2.03;;;;;;;17.52;36.77;100607.38;5072545;28;20036;-67
2022/04/20 11:59:08;;;;;;;2.88;1.90;;;;;;;17.31;36.39;100599.75;5065908;28;20115;-66
2022/04/20 12:01:41;;;;;;;2.67;1.60;;;;;;;17.32;36.22;100601.38;5071555;28;20127;-66
2022/04/20 12:04:18;;;;;;;1.88;1.65;;;;;;;17.55;36.64;100606.72;5069007;28;20407;-66
2022/04/20 12:06:52;;;;;;;1.38;1.27;;;;;;;18.08;35.13;100598.34;5064097;28;20059;-66
2022/04/20 12:09:28;;;;;;;2.03;1.73;;;;;;;18.55;34.92;100589.16;5067680;28;20044;-66
2022/04/20 12:12:01;;;;;;;1.75;1.45;;;;;;;19.00;34.87;100596.06;5066391;28;20055;-67
2022/04/20 12:14:34;;;;;;;1.58;1.48;;;;;;;19.22;34.40;100598.88;5070753;28;20060;-67
2022/04/20 12:17:05;;;;;;;1.75;1.65;;;;;;;18.59;34.64;100594.84;5070239;28;20049;-67
2022/04/20 12:19:38;;;;;;;2.28;1.50;;;;;;;18.33;34.69;100599.38;5062175;28;20722;-67
2022/04/20 12:22:08;;;;;;;1.80;1.70;;;;;;;18.33;34.76;100590.25;5067975;28;20222;-67
2022/04/20 12:24:37;;;;;;;1.85;1.65;;;;;;;18.07;35.27;100593.94;5060595;28;20057;-66
2022/04/20 12:27:18;;;;;;;1.40;1.23;;;;;;;18.53;35.07;100592.28;5069437;28;20044;-67
2022/04/20 12:29:54;;;;;;;1.90;1.63;;;;;;;19.07;34.01;100590.81;5063171;28;20059;-67
2022/04/20 12:32:27;;;;;;;1.50;1.40;;;;;;;19.01;33.69;100583.81;5060400;28;20052;-67
2022/04/20 12:35:01;;;;;;;7.97;1.83;;;;;;;18.68;34.34;100584.53;5061853;28;20044;-67